createdAt,value
2022-11-08T00:02:24.498Z,5.39
2022-11-08T00:04:51.745Z,5.38
2022-11-08T00:07:37.502Z,5.36
2022-11-08T00:10:23.217Z,5.42
2022-11-08T00:13:08.900Z,5.47
2022-11-08T00:15:39.016Z,5.21
2022-11-08T00:18:07.716Z,5.39
2022-11-08T00:20:35.192Z,5.30
2022-11-08T00:23:02.378Z,5.36
2022-11-08T00:25:29.389Z,5.45
2022-11-08T00:27:57.498Z,4.87
2022-11-08T00:30:24.540Z,4.92
2022-11-08T00:32:51.844Z,4.82
2022-11-08T00:35:18.860Z,5.33
2022-11-08T00:37:45.919Z,5.24
2022-11-08T00:40:13.152Z,5.33
2022-11-08T00:42:40.301Z,5.29
2022-11-08T00:45:07.749Z,5.26
2022-11-08T00:47:35.086Z,4.89
2022-11-08T00:50:02.189Z,5.36
2022-11-08T00:52:30.923Z,5.36
2022-11-08T00:54:58.280Z,5.07
2022-11-08T00:57:46.898Z,4.75
2022-11-08T01:00:13.164Z,5.11
2022-11-08T01:02:40.399Z,5.20
2022-11-08T01:05:07.853Z,5.25
2022-11-08T01:07:34.976Z,5.21
2022-11-08T01:10:02.240Z,5.18
2022-11-08T01:12:30.646Z,5.12
2022-11-08T01:14:57.905Z,5.24
2022-11-08T01:17:24.996Z,5.13
2022-11-08T01:19:52.054Z,4.79
2022-11-08T01:22:19.157Z,5.13
2022-11-08T01:24:46.187Z,5.16
2022-11-08T01:27:13.323Z,5.28
2022-11-08T01:29:40.315Z,5.27
2022-11-08T01:32:07.337Z,5.27
2022-11-08T01:34:34.570Z,5.30
2022-11-08T01:37:01.713Z,5.33
2022-11-08T01:39:33.072Z,5.35
2022-11-08T01:42:00.208Z,4.93
2022-11-08T01:44:27.382Z,5.34
2022-11-08T01:46:54.761Z,5.39
2022-11-08T01:49:37.529Z,5.31
2022-11-08T01:52:23.193Z,5.27
2022-11-08T01:55:23.363Z,5.27
2022-11-08T01:57:54.553Z,5.05
2022-11-08T02:00:22.329Z,5.34
2022-11-08T02:02:54.913Z,4.94
2022-11-08T02:05:26.353Z,5.37
2022-11-08T02:08:08.817Z,5.21
2022-11-08T02:10:42.116Z,5.29
2022-11-08T02:13:15.088Z,5.36
2022-11-08T02:15:43.638Z,5.33
2022-11-08T02:18:11.816Z,5.11
2022-11-08T02:20:44.260Z,5.29
2022-11-08T02:23:32.524Z,4.67
2022-11-08T02:25:59.527Z,5.11
2022-11-08T02:28:26.696Z,5.11
2022-11-08T02:30:54.774Z,5.24
2022-11-08T02:33:23.442Z,5.26
2022-11-08T02:35:55.078Z,4.82
2022-11-08T02:38:25.439Z,5.19
2022-11-08T02:40:54.696Z,5.29
2022-11-08T02:43:23.254Z,5.12
2022-11-08T02:45:51.725Z,5.28
2022-11-08T02:48:20.450Z,5.28
2022-11-08T02:50:47.919Z,4.71
2022-11-08T02:53:15.786Z,5.32
2022-11-08T02:55:42.986Z,5.31
2022-11-08T02:58:11.375Z,4.97
2022-11-08T03:00:39.041Z,5.26
2022-11-08T03:03:06.340Z,5.13
2022-11-08T03:05:33.805Z,4.83
2022-11-08T03:08:00.874Z,5.29
2022-11-08T03:10:29.276Z,5.11
2022-11-08T03:12:57.496Z,5.34
2022-11-08T03:15:25.449Z,5.34
2022-11-08T03:17:52.474Z,5.37
2022-11-08T03:20:19.673Z,5.28
2022-11-08T03:22:47.585Z,5.27
2022-11-08T03:25:14.549Z,5.15
2022-11-08T03:27:41.667Z,5.30
2022-11-08T03:30:08.904Z,5.29
2022-11-08T03:32:35.915Z,5.21
2022-11-08T03:35:02.892Z,5.23
2022-11-08T03:37:30.747Z,5.07
2022-11-08T03:39:57.839Z,4.96
2022-11-08T03:42:24.907Z,4.73
2022-11-08T03:44:51.943Z,4.92
2022-11-08T03:47:18.947Z,5.21
2022-11-08T03:49:46.038Z,5.10
2022-11-08T03:52:13.175Z,5.21
2022-11-08T03:54:40.215Z,5.19
2022-11-08T03:57:07.209Z,5.25
2022-11-08T03:59:34.263Z,5.16
2022-11-08T04:02:01.460Z,5.24
2022-11-08T04:04:28.485Z,5.21
2022-11-08T04:06:55.472Z,5.25
2022-11-08T04:09:22.505Z,4.54
2022-11-08T04:12:07.974Z,5.27
2022-11-08T04:14:53.605Z,5.20
2022-11-08T04:17:40.515Z,4.75
2022-11-08T04:20:27.904Z,5.14
2022-11-08T04:22:54.919Z,5.10
2022-11-08T04:25:22.068Z,5.37
2022-11-08T04:27:50.029Z,5.17
2022-11-08T04:30:17.151Z,4.69
2022-11-08T04:32:44.280Z,5.31
2022-11-08T04:35:11.139Z,5.33
2022-11-08T04:37:38.143Z,5.16
2022-11-08T04:40:05.714Z,5.36
2022-11-08T04:42:32.670Z,4.99
2022-11-08T04:44:59.585Z,5.29
2022-11-08T04:47:28.133Z,4.93
2022-11-08T04:49:55.231Z,5.15
2022-11-08T04:52:22.348Z,5.02
2022-11-08T04:54:49.571Z,5.33
2022-11-08T04:57:16.736Z,5.48
2022-11-08T04:59:43.834Z,5.51
2022-11-08T05:02:10.960Z,5.53
2022-11-08T05:04:38.224Z,4.99
2022-11-08T05:07:05.367Z,5.43
2022-11-08T05:09:32.494Z,5.01
2022-11-08T05:12:00.820Z,5.47
2022-11-08T05:14:27.906Z,5.31
2022-11-08T05:16:55.039Z,5.50
2022-11-08T05:19:48.227Z,5.48
2022-11-08T05:22:33.843Z,5.48
2022-11-08T05:25:01.029Z,5.47
2022-11-08T05:27:28.839Z,5.58
2022-11-08T05:29:55.795Z,5.45
2022-11-08T05:32:23.047Z,5.58
2022-11-08T05:34:50.110Z,5.50
2022-11-08T05:37:17.318Z,5.59
2022-11-08T05:39:44.339Z,5.61
2022-11-08T05:42:11.766Z,5.52
2022-11-08T05:44:38.894Z,5.67
2022-11-08T05:47:06.289Z,5.62
2022-11-08T05:49:33.587Z,5.65
2022-11-08T05:52:00.701Z,5.66
2022-11-08T05:54:27.722Z,5.41
2022-11-08T05:56:54.651Z,5.64
2022-11-08T05:59:21.580Z,5.47
2022-11-08T06:01:48.538Z,5.72
2022-11-08T06:04:15.690Z,5.17
2022-11-08T06:06:42.684Z,5.13
2022-11-08T06:09:09.587Z,4.80
2022-11-08T06:11:36.608Z,5.20
2022-11-08T06:14:03.593Z,5.71
2022-11-08T06:16:30.649Z,5.31
2022-11-08T06:18:57.594Z,5.60
2022-11-08T06:21:27.361Z,5.78
2022-11-08T06:23:55.047Z,5.91
2022-11-08T06:26:24.229Z,5.78
2022-11-08T06:28:51.382Z,5.91
2022-11-08T06:31:18.768Z,5.87
2022-11-08T06:33:45.998Z,5.87
2022-11-08T06:36:13.553Z,5.84
2022-11-08T06:38:43.964Z,5.63
2022-11-08T06:41:17.809Z,5.96
2022-11-08T06:43:44.815Z,5.98
2022-11-08T06:46:11.923Z,5.88
2022-11-08T06:48:38.967Z,5.76
2022-11-08T06:51:06.358Z,6.05
2022-11-08T06:53:33.426Z,5.98
2022-11-08T06:56:01.893Z,6.01
2022-11-08T06:58:29.624Z,5.96
2022-11-08T07:00:56.755Z,5.96
2022-11-08T07:03:24.007Z,6.07
2022-11-08T07:05:51.104Z,6.06
2022-11-08T07:08:23.339Z,6.08
2022-11-08T07:10:51.859Z,6.19
2022-11-08T07:13:19.609Z,6.22
2022-11-08T07:15:49.948Z,6.21
2022-11-08T07:18:19.168Z,6.20
2022-11-08T07:20:46.491Z,6.16
2022-11-08T07:23:14.056Z,6.29
2022-11-08T07:25:45.696Z,6.21
2022-11-08T07:28:16.887Z,6.28
2022-11-08T07:30:45.715Z,6.30
2022-11-08T07:33:13.911Z,6.09
2022-11-08T07:35:41.805Z,5.81
2022-11-08T07:38:08.866Z,6.28
2022-11-08T07:40:35.850Z,6.11
2022-11-08T07:43:11.870Z,5.72
2022-11-08T07:45:57.954Z,6.31
2022-11-08T07:48:25.945Z,6.22
2022-11-08T07:50:53.096Z,6.25
2022-11-08T07:53:20.740Z,5.96
2022-11-08T07:55:48.316Z,5.96
2022-11-08T07:58:16.406Z,6.40
2022-11-08T08:00:45.078Z,6.47
2022-11-08T08:03:14.081Z,6.40
2022-11-08T08:05:44.612Z,5.91
2022-11-08T08:08:13.450Z,6.58
2022-11-08T08:10:41.616Z,6.63
2022-11-08T08:13:09.042Z,6.67
2022-11-08T08:15:36.110Z,6.67
2022-11-08T08:18:05.007Z,6.64
2022-11-08T08:20:33.102Z,6.49
2022-11-08T08:23:00.934Z,6.17
2022-11-08T08:25:31.305Z,6.54
2022-11-08T08:28:01.171Z,6.70
2022-11-08T08:30:30.383Z,6.16
2022-11-08T08:35:58.159Z,6.76
2022-11-08T08:38:26.910Z,6.75
2022-11-08T08:40:53.908Z,6.67
2022-11-08T08:43:21.729Z,6.47
2022-11-08T08:45:49.215Z,6.74
2022-11-08T08:48:16.407Z,6.70
2022-11-08T08:50:43.726Z,6.13
2022-11-08T08:53:11.089Z,6.27
2022-11-08T08:55:39.859Z,6.52
2022-11-08T08:58:06.861Z,6.79
2022-11-08T09:03:21.911Z,6.65
2022-11-08T09:05:49.166Z,6.63
2022-11-08T09:08:16.280Z,6.67
2022-11-08T09:10:43.372Z,6.76
2022-11-08T09:13:10.689Z,6.88
2022-11-08T09:15:39.517Z,6.85
2022-11-08T09:18:07.051Z,6.93
2022-11-08T09:20:34.146Z,6.93
2022-11-08T09:23:05.167Z,6.99
2022-11-08T09:25:32.186Z,7.01
2022-11-08T09:27:59.241Z,6.90
2022-11-08T09:30:26.896Z,6.99
2022-11-08T09:33:00.704Z,6.96
2022-11-08T09:35:28.621Z,6.79
2022-11-08T09:37:56.018Z,6.83
2022-11-08T09:40:39.902Z,6.99
2022-11-08T09:43:46.490Z,6.99
2022-11-08T09:46:24.971Z,6.86
2022-11-08T09:48:53.860Z,6.92
2022-11-08T09:51:23.911Z,6.78
2022-11-08T09:54:00.024Z,6.85
2022-11-08T09:56:29.932Z,6.97
2022-11-08T09:59:18.349Z,6.56
2022-11-08T10:01:45.465Z,6.92
2022-11-08T10:04:16.408Z,6.94
2022-11-08T10:07:03.776Z,7.03
2022-11-08T10:10:28.306Z,7.10
2022-11-08T10:13:14.975Z,6.88
2022-11-08T10:15:58.988Z,7.04
2022-11-08T10:18:59.366Z,7.02
2022-11-08T10:21:48.329Z,6.71
2022-11-08T10:24:25.839Z,7.04
2022-11-08T10:26:55.362Z,7.09
2022-11-08T10:29:27.884Z,6.85
2022-11-08T10:32:24.835Z,7.17
2022-11-08T10:35:01.242Z,7.21
2022-11-08T10:37:33.385Z,7.16
2022-11-08T10:40:46.554Z,7.29
2022-11-08T10:43:26.684Z,7.32
2022-11-08T10:45:53.875Z,6.60
2022-11-08T10:48:20.952Z,7.30
2022-11-08T10:50:52.865Z,7.29
2022-11-08T10:53:27.251Z,7.22
2022-11-08T10:56:05.810Z,7.10
2022-11-08T10:58:41.499Z,7.21
2022-11-08T11:01:20.347Z,7.18
2022-11-08T11:03:49.392Z,7.14
2022-11-08T11:06:33.134Z,7.33
2022-11-08T11:09:03.817Z,7.30
2022-11-08T11:11:30.918Z,7.33
2022-11-08T11:14:21.986Z,7.31
2022-11-08T11:17:00.796Z,7.35
2022-11-08T11:19:29.379Z,7.30
2022-11-08T11:22:15.258Z,7.35
2022-11-08T11:24:52.208Z,7.29
2022-11-08T11:27:30.297Z,7.36
2022-11-08T11:30:23.117Z,7.34
2022-11-08T11:33:27.046Z,7.29
2022-11-08T11:36:19.090Z,7.10
2022-11-08T11:38:49.005Z,7.24
2022-11-08T11:41:22.372Z,7.27
2022-11-08T11:44:17.378Z,7.35
2022-11-08T11:47:03.133Z,7.32
2022-11-08T11:49:31.822Z,6.80
2022-11-08T11:51:59.098Z,7.18
2022-11-08T11:54:32.669Z,7.43
2022-11-08T11:57:24.278Z,7.07
2022-11-08T11:59:57.406Z,7.41
2022-11-08T12:02:42.658Z,7.33
2022-11-08T12:05:47.169Z,7.42
2022-11-08T12:08:23.893Z,7.37
2022-11-08T12:11:06.731Z,7.18
2022-11-08T12:14:07.457Z,7.38
2022-11-08T12:16:37.444Z,6.42
2022-11-08T12:19:29.553Z,7.38
2022-11-08T12:22:02.828Z,7.28
2022-11-08T12:24:48.229Z,7.40
2022-11-08T12:27:36.813Z,7.50
2022-11-08T12:30:36.018Z,7.43
2022-11-08T12:33:23.220Z,7.43
2022-11-08T12:36:14.529Z,7.42
2022-11-08T12:39:07.772Z,7.34
2022-11-08T12:41:50.211Z,7.42
2022-11-08T12:44:35.379Z,7.07
2022-11-08T12:47:20.676Z,7.42
2022-11-08T12:49:57.132Z,7.39
2022-11-08T12:52:55.367Z,7.41
2022-11-08T12:55:27.778Z,7.45
2022-11-08T12:57:58.871Z,7.08
2022-11-08T13:00:28.482Z,7.11
2022-11-08T13:03:43.106Z,7.22
2022-11-08T13:06:25.406Z,7.18
2022-11-08T13:12:41.366Z,6.87
2022-11-08T13:15:25.323Z,7.31
2022-11-08T13:18:07.622Z,7.25
2022-11-08T13:20:46.499Z,6.80
2022-11-08T13:23:33.227Z,7.23
2022-11-08T13:26:23.393Z,7.42
2022-11-08T13:28:51.596Z,7.34
2022-11-08T13:31:28.063Z,7.24
2022-11-08T13:34:23.732Z,7.24
2022-11-08T13:37:22.781Z,7.28
2022-11-08T13:53:58.493Z,6.62
2022-11-08T13:56:40.005Z,7.23
2022-11-08T13:59:32.214Z,7.28
2022-11-08T14:01:59.697Z,7.10
2022-11-08T14:04:40.943Z,7.25
2022-11-08T14:07:11.022Z,7.23
2022-11-08T14:09:49.116Z,7.24
2022-11-08T14:12:31.319Z,7.22
2022-11-08T14:15:07.453Z,7.24
2022-11-08T14:17:44.909Z,7.27
2022-11-08T14:20:39.745Z,7.23
2022-11-08T14:23:33.208Z,5.99
2022-11-08T14:26:02.168Z,6.37
2022-11-08T14:28:31.384Z,5.60
2022-11-08T14:30:59.897Z,7.21
2022-11-08T14:33:29.460Z,7.27
2022-11-08T14:35:56.518Z,7.24
2022-11-08T14:38:25.733Z,7.17
2022-11-08T14:41:00.030Z,7.07
2022-11-08T14:43:27.880Z,6.84
2022-11-08T14:45:58.311Z,7.15
2022-11-08T14:48:29.769Z,7.25
2022-11-08T14:51:01.739Z,7.24
2022-11-08T14:53:34.578Z,7.28
2022-11-08T14:56:16.816Z,7.33
2022-11-08T14:58:44.581Z,7.16
2022-11-08T15:01:13.929Z,6.85
2022-11-08T15:03:47.289Z,6.63
2022-11-08T15:06:14.644Z,7.20
2022-11-08T15:08:53.298Z,7.33
2022-11-08T15:11:32.064Z,7.35
2022-11-08T15:14:03.439Z,6.78
2022-11-08T15:16:45.413Z,6.76
2022-11-08T15:19:29.928Z,7.39
2022-11-08T15:22:01.643Z,6.82
2022-11-08T15:24:39.919Z,7.22
2022-11-08T15:27:13.492Z,7.43
2022-11-08T15:29:59.641Z,7.21
2022-11-08T15:32:27.627Z,6.91
2022-11-08T15:34:58.714Z,7.13
2022-11-08T15:37:35.642Z,6.77
2022-11-08T15:40:14.455Z,7.47
2022-11-08T15:42:45.639Z,7.44
2022-11-08T15:45:12.807Z,7.45
2022-11-08T15:47:42.844Z,7.34
2022-11-08T15:50:14.163Z,7.42
2022-11-08T15:52:42.215Z,7.41
2022-11-08T15:55:14.003Z,6.06
2022-11-08T15:57:43.406Z,7.45
2022-11-08T16:00:15.751Z,7.38
2022-11-08T16:02:43.660Z,7.44
2022-11-08T16:05:21.867Z,7.46
2022-11-08T16:07:50.583Z,6.93
2022-11-08T16:10:39.374Z,7.15
2022-11-08T16:13:07.678Z,7.44
2022-11-08T16:15:35.760Z,7.49
2022-11-08T16:18:03.730Z,7.49
2022-11-08T16:20:33.716Z,7.05
2022-11-08T16:23:02.921Z,7.01
2022-11-08T16:25:35.376Z,6.96
2022-11-08T16:28:09.118Z,7.49
2022-11-08T16:30:36.385Z,7.48
2022-11-08T16:33:29.044Z,7.39
2022-11-08T16:35:58.187Z,7.42
2022-11-08T16:38:29.295Z,7.34
2022-11-08T16:40:56.431Z,7.44
2022-11-08T16:43:23.397Z,7.05
2022-11-08T16:46:04.866Z,7.38
2022-11-08T16:48:32.368Z,7.49
2022-11-08T16:51:01.860Z,7.53
2022-11-08T16:53:32.607Z,7.32
2022-11-08T16:55:59.759Z,7.58
2022-11-08T16:58:28.187Z,7.37
2022-11-08T17:00:56.640Z,7.56
2022-11-08T17:03:25.835Z,7.40
2022-11-08T17:05:54.246Z,7.37
2022-11-08T17:08:22.071Z,7.61
2022-11-08T17:10:49.227Z,7.31
2022-11-08T17:13:18.564Z,7.13
2022-11-08T17:15:47.222Z,7.62
2022-11-08T17:18:17.010Z,7.65
2022-11-08T17:20:44.546Z,7.63
2022-11-08T17:23:11.887Z,7.53
2022-11-08T17:25:40.468Z,7.64
2022-11-08T17:28:08.598Z,7.63
2022-11-08T17:30:37.136Z,7.55
2022-11-08T17:33:04.402Z,7.51
2022-11-08T17:35:31.469Z,7.36
2022-11-08T17:37:58.494Z,7.62
2022-11-08T17:40:25.510Z,7.47
2022-11-08T17:42:52.911Z,7.55
2022-11-08T17:45:20.410Z,7.71
2022-11-08T17:47:48.860Z,7.72
2022-11-08T17:50:16.069Z,7.63
2022-11-08T17:52:43.077Z,7.69
2022-11-08T17:55:10.308Z,7.24
2022-11-08T17:57:37.408Z,7.57
2022-11-08T18:00:08.585Z,7.61
2022-11-08T18:02:39.878Z,7.71
2022-11-08T18:05:07.395Z,7.33
2022-11-08T18:07:34.432Z,7.44
2022-11-08T18:10:03.945Z,7.67
2022-11-08T18:12:33.012Z,7.65
2022-11-08T18:15:01.497Z,7.71
2022-11-08T18:17:30.242Z,7.59
2022-11-08T18:19:57.427Z,7.75
2022-11-08T18:22:24.781Z,7.70
2022-11-08T18:24:51.942Z,7.70
2022-11-08T18:27:19.075Z,7.76
2022-11-08T18:29:46.445Z,7.87
2022-11-08T18:32:13.491Z,7.82
2022-11-08T18:34:40.622Z,7.86
2022-11-08T18:37:07.853Z,7.74
2022-11-08T18:39:36.169Z,7.81
2022-11-08T18:42:03.307Z,7.89
2022-11-08T18:44:30.720Z,7.87
2022-11-08T18:46:58.426Z,6.97
2022-11-08T18:49:27.966Z,7.89
2022-11-08T18:51:57.714Z,7.90
2022-11-08T18:54:24.922Z,7.83
2022-11-08T18:56:52.001Z,7.91
2022-11-08T18:59:20.842Z,7.64
2022-11-08T19:01:48.168Z,7.89
2022-11-08T19:04:15.571Z,7.80
2022-11-08T19:06:42.612Z,7.41
2022-11-08T19:09:09.665Z,7.89
2022-11-08T19:11:37.211Z,7.85
2022-11-08T19:14:04.226Z,7.70
2022-11-08T19:16:32.395Z,7.75
2022-11-08T19:18:59.888Z,7.38
2022-11-08T19:21:28.164Z,7.60
2022-11-08T19:23:59.422Z,7.92
2022-11-08T19:26:28.909Z,7.83
2022-11-08T19:28:57.379Z,7.71
2022-11-08T19:31:25.524Z,7.95
2022-11-08T19:33:53.929Z,7.88
2022-11-08T19:36:23.482Z,7.29
2022-11-08T19:38:52.277Z,7.98
2022-11-08T19:41:21.414Z,8.02
2022-11-08T19:43:49.028Z,8.05
2022-11-08T19:46:18.589Z,7.85
2022-11-08T19:48:47.106Z,8.01
2022-11-08T19:51:22.223Z,8.03
2022-11-08T19:53:50.126Z,8.03
2022-11-08T19:56:19.421Z,8.12
2022-11-08T19:58:47.125Z,8.03
2022-11-08T20:01:16.528Z,8.10
2022-11-08T20:03:44.468Z,8.09
2022-11-08T20:06:12.248Z,7.98
2022-11-08T20:08:39.557Z,7.86
2022-11-08T20:11:33.203Z,8.05
2022-11-08T20:14:01.169Z,7.68
2022-11-08T20:16:32.615Z,8.13
2022-11-08T20:19:14.362Z,8.14
2022-11-08T20:21:45.964Z,7.96
2022-11-08T20:24:14.522Z,8.19
2022-11-08T20:26:42.074Z,8.19
2022-11-08T20:29:09.992Z,8.16
2022-11-08T20:31:38.775Z,7.74
2022-11-08T20:34:09.757Z,7.94
2022-11-08T20:36:37.872Z,8.16
2022-11-08T20:39:07.770Z,8.23
2022-11-08T20:41:37.716Z,8.27
2022-11-08T20:44:06.830Z,8.07
2022-11-08T20:46:36.030Z,8.08
2022-11-08T20:49:04.627Z,8.05
2022-11-08T20:51:32.453Z,8.27
2022-11-08T20:54:00.705Z,8.13
2022-11-08T20:56:29.037Z,8.09
2022-11-08T20:58:56.596Z,8.33
2022-11-08T21:01:27.408Z,8.34
2022-11-08T21:03:55.290Z,8.28
2022-11-08T21:06:24.207Z,8.30
2022-11-08T21:09:03.877Z,8.38
2022-11-08T21:11:35.629Z,8.31
2022-11-08T21:14:04.250Z,8.32
2022-11-08T21:16:42.289Z,8.31
2022-11-08T21:19:14.262Z,8.43
2022-11-08T21:21:41.736Z,8.43
2022-11-08T21:24:08.815Z,7.98
2022-11-08T21:26:36.876Z,8.37
2022-11-08T21:29:05.686Z,8.45
2022-11-08T21:31:33.601Z,8.31
2022-11-08T21:34:00.638Z,8.27
2022-11-08T21:36:29.311Z,8.19
2022-11-08T21:38:56.524Z,8.35
2022-11-08T21:41:23.758Z,8.06
2022-11-08T21:43:50.917Z,8.43
2022-11-08T21:46:24.615Z,8.48
2022-11-08T21:49:00.218Z,7.89
2022-11-08T21:51:29.556Z,8.53
2022-11-08T21:53:58.537Z,8.55
2022-11-08T21:56:30.148Z,8.57
2022-11-08T21:58:57.826Z,8.57
2022-11-08T22:01:29.920Z,8.39
2022-11-08T22:03:58.975Z,8.33
2022-11-08T22:06:26.500Z,8.46
2022-11-08T22:08:53.825Z,8.47
2022-11-08T22:11:20.941Z,8.10
2022-11-08T22:13:48.020Z,8.46
2022-11-08T22:16:15.023Z,8.38
2022-11-08T22:19:03.491Z,8.47
2022-11-08T22:21:38.519Z,8.26
2022-11-08T22:24:22.671Z,8.57
2022-11-08T22:26:51.314Z,8.41
2022-11-08T22:29:19.033Z,8.01
2022-11-08T22:31:46.288Z,8.40
2022-11-08T22:34:13.751Z,8.53
2022-11-08T22:36:45.267Z,8.40
2022-11-08T22:39:23.474Z,8.45
2022-11-08T22:41:52.885Z,8.47
2022-11-08T22:44:20.406Z,8.41
2022-11-08T22:46:48.456Z,8.48
2022-11-08T22:49:16.104Z,7.73
2022-11-08T22:51:43.796Z,8.54
2022-11-08T22:54:10.923Z,8.57
2022-11-08T22:56:38.479Z,8.59
2022-11-08T22:59:05.628Z,8.59
2022-11-08T23:01:33.514Z,8.54
2022-11-08T23:04:00.928Z,8.34
2022-11-08T23:06:28.003Z,8.46
2022-11-08T23:08:55.062Z,8.47
2022-11-08T23:11:40.503Z,8.54
2022-11-08T23:14:32.292Z,7.87
2022-11-08T23:17:03.077Z,8.59
2022-11-08T23:19:48.890Z,8.12
2022-11-08T23:22:35.203Z,8.59
2022-11-08T23:25:02.497Z,8.59
2022-11-08T23:27:49.801Z,8.46
2022-11-08T23:30:36.991Z,8.37
2022-11-08T23:33:06.762Z,8.60
2022-11-08T23:35:33.952Z,8.59
2022-11-08T23:38:01.038Z,8.57
2022-11-08T23:40:46.616Z,8.59
2022-11-08T23:43:31.781Z,8.34
2022-11-08T23:46:07.941Z,8.50
2022-11-08T23:48:36.766Z,8.56
2022-11-08T23:51:04.599Z,8.61
2022-11-08T23:53:34.361Z,8.65
2022-11-08T23:56:01.389Z,8.60
2022-11-08T23:58:28.329Z,8.67
